Time;durP1;ratioP1;P1;durP2;ratioP2;P2;SDS_P1;SDS_P2;PMS_P1;PMS_P2;Temp;Humidity;BMP_temperature;BMP_pressure;BME280_temperature;BME280_humidity;BME280_pressure;Samples;Min_cycle;Max_cycle;Signal;HPM_P1;HPM_P2
2023/10/05 00:00:31;;;;;;;0.00;0.00;;;21.40;50.50;;;;;;5042858;28;20203;-55
2023/10/05 00:02:55;;;;;;;0.10;0.10;;;21.40;50.50;;;;;;5031417;28;20691;-58
2023/10/05 00:05:26;;;;;;;0.10;0.10;;;21.40;50.40;;;;;;5033074;28;20192;-53
2023/10/05 00:07:57;;;;;;;0.10;0.10;;;21.40;50.20;;;;;;5011783;28;20232;-56
2023/10/05 00:10:27;;;;;;;0.00;0.00;;;21.40;50.20;;;;;;5012771;28;20201;-59
2023/10/05 00:13:04;;;;;;;0.10;0.10;;;21.40;50.10;;;;;;5024266;28;20216;-58
2023/10/05 00:15:38;;;;;;;0.00;0.00;;;21.50;50.10;;;;;;5030087;28;20235;-57
2023/10/05 00:18:09;;;;;;;0.00;0.00;;;21.50;50.10;;;;;;5037847;28;20230;-58
2023/10/05 00:20:41;;;;;;;0.10;0.10;;;21.60;50.10;;;;;;5050513;28;20721;-58
2023/10/05 00:23:12;;;;;;;0.10;0.10;;;21.60;50.10;;;;;;5033351;28;20215;-59
2023/10/05 00:25:43;;;;;;;0.10;0.10;;;21.60;50.10;;;;;;5049904;28;20218;-57
2023/10/05 00:28:20;;;;;;;0.00;0.00;;;21.60;50.10;;;;;;5031849;28;20672;-57
2023/10/05 00:30:54;;;;;;;0.10;0.10;;;21.60;50.00;;;;;;5040531;28;20191;-57
2023/10/05 00:33:24;;;;;;;0.00;0.00;;;21.70;50.00;;;;;;5030747;28;20362;-48
2023/10/05 00:35:56;;;;;;;0.00;0.00;;;21.70;50.00;;;;;;5027150;28;20732;-58
2023/10/05 00:38:29;;;;;;;0.10;0.10;;;21.70;50.00;;;;;;5031960;28;20203;-54
2023/10/05 00:41:04;;;;;;;0.00;0.00;;;21.80;49.90;;;;;;5030190;28;20206;-52
2023/10/05 00:43:35;;;;;;;0.00;0.00;;;21.70;49.80;;;;;;5036772;28;20238;-60
2023/10/05 00:46:09;;;;;;;0.00;0.00;;;21.80;49.80;;;;;;5031134;28;20196;-51
2023/10/05 00:48:42;;;;;;;0.00;0.00;;;21.80;49.80;;;;;;5028258;28;20287;-49
2023/10/05 00:51:23;;;;;;;0.08;0.08;;;21.80;49.70;;;;;;5015316;28;20185;-46
2023/10/05 00:53:56;;;;;;;0.10;0.10;;;21.90;49.60;;;;;;5031665;28;20228;-58
2023/10/05 00:56:33;;;;;;;0.10;0.10;;;21.90;49.50;;;;;;5046191;28;20641;-58
2023/10/05 00:59:09;;;;;;;0.00;0.00;;;22.00;49.40;;;;;;5023522;28;20192;-51
2023/10/05 01:02:02;;;;;;;0.00;0.00;;;22.00;49.30;;;;;;5017841;28;20214;-51
2023/10/05 01:04:52;;;;;;;0.08;0.08;;;22.00;49.30;;;;;;5010363;28;20224;-53
2023/10/05 01:10:29;;;;;;;0.10;0.10;;;22.10;49.30;;;;;;5025748;28;20196;-51
2023/10/05 01:13:00;;;;;;;0.00;0.00;;;22.10;49.20;;;;;;5030919;28;20298;-51
2023/10/05 01:15:35;;;;;;;0.10;0.10;;;22.20;49.30;;;;;;5028698;28;20614;-49
2023/10/05 01:18:20;;;;;;;0.10;0.10;;;22.10;49.30;;;;;;5031132;28;20200;-48
2023/10/05 01:20:51;;;;;;;0.00;0.00;;;22.20;49.30;;;;;;5050574;28;20199;-51
2023/10/05 01:23:37;;;;;;;0.10;0.10;;;22.20;49.40;;;;;;5031034;28;20606;-45
2023/10/05 01:26:11;;;;;;;0.00;0.00;;;22.20;49.40;;;;;;5030463;28;20203;-51
2023/10/05 01:28:43;;;;;;;0.00;0.00;;;22.30;49.40;;;;;;5027712;28;20648;-47
2023/10/05 01:31:16;;;;;;;0.00;0.00;;;22.20;49.20;;;;;;5021035;28;20211;-50
2023/10/05 01:33:47;;;;;;;0.00;0.00;;;22.30;49.20;;;;;;5030076;28;20220;-54
2023/10/05 01:36:22;;;;;;;0.00;0.00;;;22.30;49.10;;;;;;5030014;28;20196;-55
2023/10/05 01:39:00;;;;;;;0.00;0.00;;;22.30;49.10;;;;;;5030296;28;20196;-50
2023/10/05 01:41:31;;;;;;;0.10;0.10;;;22.40;49.00;;;;;;5027539;28;20552;-56
2023/10/05 01:44:04;;;;;;;0.08;0.08;;;22.40;49.00;;;;;;5041555;28;20265;-54
2023/10/05 01:46:36;;;;;;;0.10;0.10;;;22.40;48.90;;;;;;5042627;28;20222;-51
2023/10/05 01:49:06;;;;;;;0.00;0.00;;;22.40;49.00;;;;;;5046670;28;20226;-51
2023/10/05 01:51:37;;;;;;;0.00;0.00;;;22.50;48.80;;;;;;5046216;28;20189;-50
2023/10/05 01:54:13;;;;;;;0.10;0.10;;;22.50;48.80;;;;;;5029524;28;20224;-53
2023/10/05 01:56:47;;;;;;;0.00;0.00;;;22.50;48.90;;;;;;5018521;28;20207;-53
2023/10/05 01:59:21;;;;;;;0.00;0.00;;;22.50;48.90;;;;;;5034024;28;20257;-53
2023/10/05 02:01:54;;;;;;;0.00;0.00;;;22.50;48.90;;;;;;5049023;28;20200;-55
2023/10/05 02:04:24;;;;;;;0.00;0.00;;;22.60;49.00;;;;;;5033249;28;20775;-58
2023/10/05 02:06:55;;;;;;;0.10;0.10;;;22.60;49.00;;;;;;5034746;28;20270;-53
2023/10/05 02:26:33;;;;;;;0.10;0.10;;;22.70;48.60;;;;;;5014335;28;20220;-50
2023/10/05 02:29:13;;;;;;;0.00;0.00;;;22.70;48.50;;;;;;5013293;28;20207;-50
2023/10/05 02:31:57;;;;;;;0.10;0.10;;;22.80;48.70;;;;;;5029469;28;20288;-46
2023/10/05 02:34:33;;;;;;;0.10;0.10;;;22.80;48.70;;;;;;5018679;28;20259;-54
2023/10/05 02:37:05;;;;;;;0.10;0.10;;;22.80;48.70;;;;;;5029068;28;20271;-54
2023/10/05 02:39:37;;;;;;;0.10;0.10;;;22.90;48.70;;;;;;5033258;28;20268;-56
2023/10/05 02:42:14;;;;;;;0.03;0.03;;;22.80;48.70;;;;;;5031826;28;20224;-55
2023/10/05 02:44:46;;;;;;;0.10;0.10;;;22.90;48.80;;;;;;5047069;28;20249;-50
2023/10/05 02:47:22;;;;;;;0.10;0.10;;;22.90;48.80;;;;;;5038821;28;20231;-57
2023/10/05 02:49:53;;;;;;;0.05;0.05;;;23.00;48.80;;;;;;5049111;28;20280;-56
2023/10/05 02:52:25;;;;;;;0.10;0.10;;;23.00;48.70;;;;;;5045711;28;20208;-58
2023/10/05 02:54:56;;;;;;;0.10;0.10;;;23.00;48.70;;;;;;5033142;28;20285;-55
2023/10/05 02:57:28;;;;;;;0.00;0.00;;;23.00;48.70;;;;;;5046390;28;20197;-55
2023/10/05 03:00:00;;;;;;;0.00;0.00;;;23.00;48.60;;;;;;5033201;28;20280;-52
2023/10/05 03:02:34;;;;;;;0.10;0.10;;;23.10;48.70;;;;;;5044946;28;20223;-57
2023/10/05 03:05:07;;;;;;;0.10;0.10;;;23.10;48.60;;;;;;5032324;28;20671;-55
2023/10/05 03:07:40;;;;;;;0.05;0.05;;;23.10;48.50;;;;;;5037964;28;20235;-53
2023/10/05 03:10:16;;;;;;;0.00;0.00;;;23.20;48.50;;;;;;5052998;28;20207;-55
2023/10/05 03:12:48;;;;;;;0.00;0.00;;;23.20;48.50;;;;;;5044315;28;20269;-54
2023/10/05 03:15:23;;;;;;;0.10;0.10;;;23.30;48.40;;;;;;5013718;28;20239;-54
2023/10/05 03:17:56;;;;;;;0.10;0.10;;;23.30;48.20;;;;;;5028298;28;20196;-55
2023/10/05 03:20:29;;;;;;;0.10;0.10;;;23.30;48.10;;;;;;5042597;28;20290;-55
2023/10/05 03:23:03;;;;;;;0.08;0.08;;;23.30;48.10;;;;;;5042505;28;20208;-58
2023/10/05 03:25:34;;;;;;;0.00;0.00;;;23.30;48.00;;;;;;5029937;28;20660;-56
2023/10/05 03:28:07;;;;;;;0.10;0.10;;;23.30;48.00;;;;;;5022897;28;20204;-56
2023/10/05 03:30:38;;;;;;;0.00;0.00;;;23.40;48.00;;;;;;5030766;28;20600;-52
2023/10/05 03:33:11;;;;;;;0.00;0.00;;;23.40;47.90;;;;;;5046296;28;20238;-60
2023/10/05 03:35:45;;;;;;;0.10;0.10;;;23.40;47.80;;;;;;5013106;28;20279;-54
2023/10/05 03:38:19;;;;;;;0.00;0.00;;;23.40;47.90;;;;;;5046431;28;20194;-53
2023/10/05 03:40:50;;;;;;;0.00;0.00;;;23.40;47.80;;;;;;5052666;28;20196;-58
2023/10/05 03:43:23;;;;;;;0.10;0.10;;;23.50;47.80;;;;;;5052109;28;20215;-55
2023/10/05 03:45:53;;;;;;;0.10;0.10;;;23.50;47.80;;;;;;5052770;28;20195;-52
2023/10/05 03:48:26;;;;;;;0.00;0.00;;;23.40;47.80;;;;;;5032611;28;20200;-57
2023/10/05 03:50:57;;;;;;;0.10;0.10;;;23.50;47.80;;;;;;5052077;28;20618;-58
2023/10/05 03:53:27;;;;;;;0.10;0.10;;;23.50;47.80;;;;;;5045057;28;20220;-52
2023/10/05 03:55:58;;;;;;;0.10;0.10;;;23.50;47.80;;;;;;5035971;28;20653;-59
2023/10/05 03:58:32;;;;;;;0.00;0.00;;;23.50;47.80;;;;;;5052049;28;20253;-55
2023/10/05 04:01:04;;;;;;;0.00;0.00;;;23.50;47.80;;;;;;5034446;28;20238;-51
2023/10/05 04:03:35;;;;;;;0.10;0.10;;;23.60;47.90;;;;;;5031582;28;20303;-53
2023/10/05 04:06:16;;;;;;;0.00;0.00;;;23.60;47.80;;;;;;5031650;28;20303;-53
2023/10/05 04:08:50;;;;;;;0.00;0.00;;;23.60;47.80;;;;;;5041447;28;20671;-51
2023/10/05 04:11:21;;;;;;;0.00;0.00;;;23.60;47.70;;;;;;5051851;28;20200;-52
2023/10/05 04:13:54;;;;;;;0.10;0.10;;;23.60;47.70;;;;;;5046607;28;20227;-56
2023/10/05 04:16:33;;;;;;;0.00;0.00;;;23.60;47.70;;;;;;5014396;28;20672;-57
2023/10/05 04:19:04;;;;;;;0.10;0.10;;;23.60;47.70;;;;;;5030781;28;20538;-46
2023/10/05 04:21:35;;;;;;;0.08;0.08;;;23.60;47.70;;;;;;5046811;28;20668;-48
2023/10/05 04:24:06;;;;;;;0.00;0.00;;;23.60;47.70;;;;;;5039391;28;20208;-53
2023/10/05 04:26:39;;;;;;;0.10;0.10;;;23.70;47.70;;;;;;5032435;28;20197;-54
2023/10/05 04:29:12;;;;;;;0.00;0.00;;;23.70;47.70;;;;;;5030414;28;20567;-52
2023/10/05 04:31:48;;;;;;;0.10;0.10;;;23.70;47.70;;;;;;5029666;28;20200;-51
2023/10/05 04:34:21;;;;;;;0.00;0.00;;;23.70;47.70;;;;;;5031115;28;20293;-48
2023/10/05 04:36:54;;;;;;;0.00;0.00;;;23.70;47.70;;;;;;5028006;28;20200;-50
2023/10/05 04:39:29;;;;;;;0.08;0.08;;;23.70;47.60;;;;;;5037891;28;20197;-57
2023/10/05 04:42:05;;;;;;;0.08;0.08;;;23.80;47.70;;;;;;5030782;28;20199;-56
2023/10/05 04:44:38;;;;;;;0.00;0.00;;;23.80;47.60;;;;;;5029437;28;20199;-58
2023/10/05 04:47:09;;;;;;;0.10;0.10;;;23.80;47.60;;;;;;5030334;28;20199;-55
2023/10/05 04:49:40;;;;;;;0.00;0.00;;;23.80;47.60;;;;;;5029892;28;20702;-53
2023/10/05 04:52:19;;;;;;;0.00;0.00;;;23.80;48.20;;;;;;5018199;28;20204;-58
2023/10/05 04:54:57;;;;;;;0.10;0.10;;;23.80;47.60;;;;;;5025570;28;20734;-51
2023/10/05 04:57:39;;;;;;;0.10;0.10;;;23.90;47.60;;;;;;5042806;28;20211;-52
2023/10/05 05:03:05;;;;;;;0.10;0.10;;;23.90;47.60;;;;;;5029810;28;20274;-55
2023/10/05 05:05:53;;;;;;;0.00;0.00;;;23.90;47.60;;;;;;5014527;28;20232;-57
2023/10/05 05:08:23;;;;;;;0.10;0.10;;;24.00;47.60;;;;;;5014269;28;20991;-51
2023/10/05 05:10:54;;;;;;;0.10;0.10;;;24.00;47.60;;;;;;5050556;28;20241;-55
2023/10/05 05:13:27;;;;;;;0.00;0.00;;;24.00;47.60;;;;;;5049715;28;20220;-56
2023/10/05 05:16:00;;;;;;;0.00;0.00;;;24.00;47.60;;;;;;5048878;28;20285;-56
2023/10/05 05:18:32;;;;;;;0.00;0.00;;;24.00;47.60;;;;;;5023618;28;20218;-58
2023/10/05 05:21:03;;;;;;;0.05;0.05;;;24.00;47.60;;;;;;5034059;28;20188;-59
2023/10/05 05:23:34;;;;;;;0.00;0.00;;;24.00;47.60;;;;;;5037294;28;20220;-58
2023/10/05 05:26:08;;;;;;;0.08;0.08;;;24.00;47.60;;;;;;5036663;28;20207;-56
2023/10/05 05:28:43;;;;;;;0.00;0.00;;;24.00;47.50;;;;;;5044264;28;20275;-59
2023/10/05 05:31:16;;;;;;;0.00;0.00;;;24.00;47.80;;;;;;5019620;28;20599;-55
2023/10/05 05:33:48;;;;;;;0.00;0.00;;;24.00;47.40;;;;;;5026172;28;20235;-59
2023/10/05 05:36:19;;;;;;;0.10;0.10;;;24.00;47.30;;;;;;5029441;28;20584;-59
2023/10/05 05:38:50;;;;;;;0.00;0.00;;;24.00;47.20;;;;;;5036967;28;20199;-56
2023/10/05 05:41:21;;;;;;;0.10;0.10;;;24.00;47.20;;;;;;5029758;28;20200;-51
2023/10/05 05:43:53;;;;;;;0.00;0.00;;;24.00;47.10;;;;;;5034771;28;20691;-48
2023/10/05 05:46:26;;;;;;;0.08;0.08;;;24.00;47.00;;;;;;5036284;28;20196;-49
2023/10/05 05:48:57;;;;;;;0.00;0.00;;;24.00;47.00;;;;;;5025515;28;20196;-50
2023/10/05 05:51:28;;;;;;;0.00;0.00;;;24.00;47.00;;;;;;5042190;28;20205;-55
2023/10/05 05:54:03;;;;;;;0.03;0.03;;;24.00;47.00;;;;;;5044446;28;20451;-52
2023/10/05 05:56:34;;;;;;;0.00;0.00;;;23.90;47.00;;;;;;5028347;28;20235;-46
2023/10/05 05:59:04;;;;;;;0.00;0.00;;;23.90;46.90;;;;;;5015740;28;20201;-48
2023/10/05 06:01:37;;;;;;;0.00;0.00;;;23.90;47.10;;;;;;5029159;28;20420;-46
2023/10/05 06:04:08;;;;;;;0.00;0.00;;;23.90;47.10;;;;;;5015677;28;20300;-49
2023/10/05 06:06:38;;;;;;;0.10;0.10;;;23.90;47.10;;;;;;5029804;28;20208;-54
2023/10/05 06:09:11;;;;;;;0.00;0.00;;;23.90;47.10;;;;;;5032524;28;21082;-55
2023/10/05 06:11:42;;;;;;;0.10;0.10;;;23.80;47.10;;;;;;5050531;28;20192;-55
2023/10/05 06:14:12;;;;;;;0.08;0.08;;;23.80;47.10;;;;;;5022192;28;20250;-51
2023/10/05 06:16:45;;;;;;;0.10;0.10;;;23.80;47.10;;;;;;5041776;28;20236;-50
2023/10/05 06:19:15;;;;;;;0.00;0.00;;;23.80;47.10;;;;;;5029980;28;20751;-53
2023/10/05 06:21:46;;;;;;;0.00;0.00;;;23.80;47.10;;;;;;5036741;28;20667;-55
2023/10/05 06:24:18;;;;;;;0.00;0.00;;;23.80;47.10;;;;;;5043752;28;20726;-53
2023/10/05 06:26:48;;;;;;;0.00;0.00;;;23.70;47.00;;;;;;5024638;28;20276;-54
2023/10/05 06:29:19;;;;;;;0.10;0.10;;;23.70;47.00;;;;;;5015091;28;20247;-52
2023/10/05 06:31:51;;;;;;;0.00;0.00;;;23.70;47.10;;;;;;5009698;28;20193;-53
2023/10/05 06:34:23;;;;;;;0.10;0.10;;;23.60;47.00;;;;;;5033173;28;20211;-53
2023/10/05 06:36:54;;;;;;;0.00;0.00;;;23.60;47.10;;;;;;5031652;28;20614;-52
2023/10/05 06:39:27;;;;;;;0.00;0.00;;;23.60;47.10;;;;;;5030116;28;20242;-51
2023/10/05 06:41:58;;;;;;;0.10;0.10;;;23.60;47.10;;;;;;5033650;28;20197;-53
2023/10/05 06:44:28;;;;;;;0.00;0.00;;;23.50;47.10;;;;;;5033165;28;20310;-58
2023/10/05 06:47:04;;;;;;;0.08;0.08;;;23.50;47.10;;;;;;5039007;28;20200;-56
2023/10/05 06:49:35;;;;;;;0.00;0.00;;;23.50;47.10;;;;;;5033130;28;20246;-58
2023/10/05 06:52:08;;;;;;;0.00;0.00;;;23.50;47.20;;;;;;5049329;28;20667;-56
2023/10/05 06:54:39;;;;;;;0.10;0.10;;;23.50;47.20;;;;;;5052801;28;20290;-54
2023/10/05 06:57:10;;;;;;;0.00;0.00;;;23.50;47.20;;;;;;5053184;28;20227;-52
2023/10/05 06:59:42;;;;;;;0.00;0.00;;;23.40;47.20;;;;;;5012718;28;20201;-59
2023/10/05 07:02:14;;;;;;;0.00;0.00;;;23.40;47.20;;;;;;5013786;28;20575;-51
2023/10/05 07:04:45;;;;;;;0.00;0.00;;;23.40;47.30;;;;;;5022826;28;20654;-53
2023/10/05 07:07:16;;;;;;;0.00;0.00;;;23.40;47.30;;;;;;5013952;28;20208;-53
2023/10/05 07:09:49;;;;;;;0.03;0.03;;;23.40;47.30;;;;;;5024155;28;20564;-53
2023/10/05 07:12:19;;;;;;;0.00;0.00;;;23.30;47.30;;;;;;5048735;28;20227;-53
2023/10/05 07:14:50;;;;;;;0.00;0.00;;;23.30;47.30;;;;;;5036510;28;20207;-53
2023/10/05 07:17:22;;;;;;;0.00;0.00;;;23.30;47.30;;;;;;5041060;28;20250;-55
2023/10/05 07:19:53;;;;;;;0.00;0.00;;;23.30;47.30;;;;;;5031553;28;20188;-55
2023/10/05 07:22:24;;;;;;;0.00;0.00;;;23.20;47.30;;;;;;5039422;28;20188;-51
2023/10/05 07:24:56;;;;;;;0.10;0.10;;;23.20;47.30;;;;;;5045555;28;20570;-58
2023/10/05 07:27:27;;;;;;;0.10;0.10;;;23.20;47.40;;;;;;5040922;28;20269;-58
2023/10/05 07:29:58;;;;;;;0.00;0.00;;;23.10;47.40;;;;;;5040956;28;20200;-56
2023/10/05 07:32:30;;;;;;;0.10;0.10;;;23.10;47.50;;;;;;5031672;28;20192;-59
2023/10/05 07:35:01;;;;;;;0.08;0.08;;;23.10;47.50;;;;;;5044226;28;20203;-58
2023/10/05 07:37:32;;;;;;;0.10;0.10;;;23.10;47.50;;;;;;5031444;28;20231;-53
2023/10/05 07:40:04;;;;;;;0.05;0.05;;;23.10;47.50;;;;;;5032072;28;20192;-56
2023/10/05 07:42:34;;;;;;;0.10;0.10;;;23.10;47.50;;;;;;5032375;28;20220;-54
2023/10/05 07:45:07;;;;;;;0.10;0.10;;;23.00;47.50;;;;;;5031497;28;20679;-55
2023/10/05 07:47:44;;;;;;;0.00;0.00;;;23.00;47.60;;;;;;5033730;28;20283;-53
2023/10/05 07:50:14;;;;;;;0.00;0.00;;;23.00;47.60;;;;;;5031860;28;20207;-58
2023/10/05 07:52:48;;;;;;;0.08;0.08;;;23.00;47.60;;;;;;5046753;28;20227;-58
2023/10/05 07:55:18;;;;;;;0.00;0.00;;;23.00;47.60;;;;;;5032132;28;20196;-57
2023/10/05 07:57:49;;;;;;;0.10;0.10;;;22.90;47.60;;;;;;5031427;28;20197;-53
2023/10/05 08:00:20;;;;;;;0.00;0.00;;;22.90;47.60;;;;;;5051768;28;20257;-57
2023/10/05 08:02:52;;;;;;;0.03;0.03;;;22.90;47.60;;;;;;5040371;28;20212;-53
2023/10/05 08:05:23;;;;;;;0.00;0.00;;;22.90;47.60;;;;;;5052081;28;20195;-56
2023/10/05 08:07:54;;;;;;;0.10;0.10;;;22.80;47.60;;;;;;5042741;28;20208;-56
2023/10/05 08:10:25;;;;;;;0.10;0.10;;;22.80;47.70;;;;;;5035723;28;20245;-54
2023/10/05 08:12:55;;;;;;;0.10;0.10;;;22.80;47.70;;;;;;5051960;28;20238;-52
2023/10/05 08:15:26;;;;;;;0.10;0.10;;;22.70;47.70;;;;;;5034922;28;20660;-46
2023/10/05 08:17:59;;;;;;;0.00;0.00;;;22.70;47.80;;;;;;5031368;28;20567;-55
2023/10/05 08:20:29;;;;;;;0.00;0.00;;;22.70;47.80;;;;;;5031253;28;20586;-54
2023/10/05 08:23:00;;;;;;;0.00;0.00;;;22.70;47.90;;;;;;5039198;28;20219;-46
2023/10/05 08:25:30;;;;;;;0.10;0.10;;;22.70;47.90;;;;;;5051106;28;20555;-52
2023/10/05 08:28:02;;;;;;;0.00;0.00;;;22.60;47.90;;;;;;5051279;28;20191;-59
2023/10/05 08:30:49;;;;;;;0.08;0.08;;;22.60;48.00;;;;;;5050709;28;20613;-50
2023/10/05 08:33:22;;;;;;;0.10;0.10;;;22.60;48.00;;;;;;5050788;28;20622;-54
2023/10/05 08:35:53;;;;;;;0.10;0.10;;;22.60;48.00;;;;;;5050459;28;20223;-51
2023/10/05 08:38:24;;;;;;;0.00;0.00;;;22.60;48.00;;;;;;5050236;28;20200;-54
2023/10/05 08:40:54;;;;;;;0.10;0.10;;;22.50;48.00;;;;;;5051127;28;20192;-52
2023/10/05 08:43:26;;;;;;;0.00;0.00;;;22.50;48.00;;;;;;5051035;28;20301;-50
2023/10/05 08:46:10;;;;;;;0.00;0.00;;;22.50;48.00;;;;;;5050696;28;20211;-51
2023/10/05 08:48:44;;;;;;;0.00;0.00;;;22.50;48.00;;;;;;5050966;28;20284;-52
2023/10/05 08:51:15;;;;;;;0.00;0.00;;;22.50;48.00;;;;;;5051047;28;20238;-56
2023/10/05 08:53:54;;;;;;;0.00;0.00;;;22.40;48.00;;;;;;5050782;28;20269;-58
2023/10/05 08:56:25;;;;;;;0.10;0.10;;;22.40;48.10;;;;;;5050801;28;20233;-55
2023/10/05 08:58:59;;;;;;;0.00;0.00;;;22.40;48.10;;;;;;5049581;28;20203;-53
2023/10/05 09:01:33;;;;;;;0.10;0.10;;;22.40;48.10;;;;;;5050441;28;20610;-51
2023/10/05 09:04:23;;;;;;;0.00;0.00;;;22.40;48.10;;;;;;5049043;28;20218;-58
2023/10/05 09:06:55;;;;;;;0.10;0.10;;;22.30;48.20;;;;;;5050647;28;20199;-55
2023/10/05 09:09:37;;;;;;;0.10;0.10;;;22.30;48.10;;;;;;5050586;28;20199;-49
2023/10/05 09:12:32;;;;;;;0.00;0.00;;;22.30;48.20;;;;;;5030253;28;20729;-59
2023/10/05 09:15:18;;;;;;;0.00;0.00;;;22.30;48.20;;;;;;5029140;28;20644;-58
2023/10/05 09:18:17;;;;;;;0.10;0.10;;;22.30;48.20;;;;;;5027359;28;20310;-58
2023/10/05 09:20:53;;;;;;;0.08;0.08;;;22.20;48.20;;;;;;5027532;28;20200;-52
2023/10/05 09:23:32;;;;;;;0.08;0.08;;;22.30;48.20;;;;;;5023941;28;20749;-55
2023/10/05 09:26:06;;;;;;;0.00;0.00;;;22.20;48.20;;;;;;5041743;28;20199;-54
2023/10/05 09:28:44;;;;;;;0.10;0.10;;;22.20;48.20;;;;;;5030115;28;20207;-53
2023/10/05 09:31:15;;;;;;;0.00;0.00;;;22.20;48.80;;;;;;5030039;28;20571;-55
2023/10/05 09:33:53;;;;;;;0.10;0.10;;;22.20;48.20;;;;;;5030333;28;20216;-53
2023/10/05 09:36:25;;;;;;;0.10;0.10;;;22.10;48.20;;;;;;5030110;28;20242;-54
2023/10/05 09:38:59;;;;;;;0.10;0.10;;;22.10;48.20;;;;;;5029815;28;20234;-58
2023/10/05 09:41:35;;;;;;;0.10;0.10;;;22.10;48.30;;;;;;5030187;28;20195;-57
2023/10/05 09:44:11;;;;;;;0.10;0.10;;;22.10;48.40;;;;;;5022664;28;20294;-58
2023/10/05 09:46:43;;;;;;;0.10;0.10;;;22.10;48.30;;;;;;5030593;28;20690;-54
2023/10/05 09:49:17;;;;;;;0.10;0.10;;;22.10;48.40;;;;;;5029301;28;20227;-56
2023/10/05 09:51:51;;;;;;;0.00;0.00;;;22.00;48.30;;;;;;5030558;28;20196;-56
2023/10/05 09:54:26;;;;;;;0.05;0.05;;;22.00;48.30;;;;;;5029313;28;20278;-58
2023/10/05 09:56:58;;;;;;;0.10;0.10;;;22.00;48.30;;;;;;5024969;28;20223;-51
2023/10/05 09:59:31;;;;;;;0.00;0.00;;;22.00;48.30;;;;;;5029828;28;20196;-51
2023/10/05 10:02:02;;;;;;;0.00;0.00;;;22.00;48.30;;;;;;5029639;28;20207;-57
2023/10/05 10:04:37;;;;;;;0.10;0.10;;;22.00;48.30;;;;;;5030059;28;20216;-57
2023/10/05 10:07:22;;;;;;;0.10;0.10;;;22.00;48.30;;;;;;5029148;28;20230;-53
2023/10/05 10:10:01;;;;;;;0.08;0.08;;;22.00;48.30;;;;;;5025039;28;20192;-55
2023/10/05 10:12:38;;;;;;;0.10;0.10;;;21.90;48.30;;;;;;5029376;28;20263;-54
2023/10/05 10:15:24;;;;;;;0.10;0.10;;;21.90;48.30;;;;;;5032466;28;20739;-58
2023/10/05 10:18:03;;;;;;;0.05;0.05;;;21.90;48.30;;;;;;5032548;28;20302;-57
2023/10/05 10:20:38;;;;;;;0.10;0.10;;;21.90;48.30;;;;;;5038362;28;20195;-59
2023/10/05 10:23:19;;;;;;;0.10;0.10;;;21.80;48.20;;;;;;5047201;28;20269;-58
2023/10/05 10:25:50;;;;;;;0.10;0.10;;;21.80;48.30;;;;;;5020955;28;20602;-53
2023/10/05 10:28:39;;;;;;;0.10;0.10;;;21.80;48.30;;;;;;5032516;28;20228;-55
2023/10/05 10:31:22;;;;;;;0.08;0.08;;;21.70;48.30;;;;;;5033842;28;20350;-58
2023/10/05 10:33:53;;;;;;;0.10;0.10;;;21.70;48.40;;;;;;5033711;28;20278;-50
2023/10/05 10:36:46;;;;;;;0.10;0.10;;;21.70;48.40;;;;;;5032268;28;20303;-46
2023/10/05 10:39:24;;;;;;;0.08;0.08;;;21.70;48.40;;;;;;5030533;28;20207;-50
2023/10/05 10:42:12;;;;;;;0.00;0.00;;;21.70;48.40;;;;;;5032208;28;20203;-49
2023/10/05 10:44:57;;;;;;;0.00;0.00;;;21.70;48.50;;;;;;5033933;28;20200;-50
2023/10/05 10:47:35;;;;;;;0.10;0.10;;;21.60;48.40;;;;;;5032253;28;20200;-48
2023/10/05 10:50:15;;;;;;;0.00;0.00;;;21.60;48.40;;;;;;5033408;28;20204;-46
2023/10/05 10:52:49;;;;;;;0.00;0.00;;;21.60;48.40;;;;;;5027443;28;20307;-44
2023/10/05 10:55:31;;;;;;;0.00;0.00;;;21.60;48.40;;;;;;5032748;28;20208;-50
2023/10/05 10:58:04;;;;;;;0.00;0.00;;;21.60;48.30;;;;;;5032157;28;20590;-45
2023/10/05 11:00:54;;;;;;;0.00;0.00;;;21.60;48.40;;;;;;5032974;28;20203;-51
2023/10/05 11:03:27;;;;;;;0.00;0.00;;;21.50;48.30;;;;;;5032363;28;20216;-50
2023/10/05 11:05:56;;;;;;;0.00;0.00;;;21.50;48.30;;;;;;5027808;28;20590;-54
2023/10/05 11:08:31;;;;;;;0.00;0.00;;;21.50;48.40;;;;;;5032382;28;20254;-54
2023/10/05 11:11:09;;;;;;;0.10;0.10;;;21.50;48.40;;;;;;5033230;28;20564;-58
2023/10/05 11:13:45;;;;;;;0.00;0.00;;;21.50;48.40;;;;;;5031280;28;20212;-51
2023/10/05 11:16:16;;;;;;;0.10;0.10;;;21.50;48.40;;;;;;5032350;28;20274;-52
2023/10/05 11:18:57;;;;;;;0.00;0.00;;;21.50;48.50;;;;;;5032464;28;20618;-53
2023/10/05 11:21:33;;;;;;;0.00;0.00;;;21.40;48.50;;;;;;5022799;28;20242;-50
2023/10/05 11:24:07;;;;;;;0.00;0.00;;;21.40;48.50;;;;;;5033185;28;20309;-53
2023/10/05 11:27:05;;;;;;;0.00;0.00;;;21.40;48.50;;;;;;5032193;28;20286;-45
2023/10/05 11:29:48;;;;;;;0.10;0.10;;;21.40;48.50;;;;;;5013508;28;20196;-53
2023/10/05 11:32:21;;;;;;;0.03;0.03;;;21.40;48.40;;;;;;5013733;28;20197;-51
2023/10/05 11:34:55;;;;;;;0.00;0.00;;;21.40;48.40;;;;;;5025469;28;20220;-51
2023/10/05 11:37:28;;;;;;;0.10;0.10;;;21.30;48.30;;;;;;5032408;28;20311;-54
2023/10/05 11:40:05;;;;;;;0.08;0.08;;;21.30;48.30;;;;;;5030771;28;20603;-51
2023/10/05 11:42:41;;;;;;;0.10;0.10;;;21.30;48.40;;;;;;5028895;28;20626;-51
2023/10/05 11:45:16;;;;;;;0.00;0.00;;;21.30;48.40;;;;;;5032377;28;20184;-52
2023/10/05 11:47:52;;;;;;;0.10;0.10;;;21.30;48.40;;;;;;5032742;28;20196;-52
2023/10/05 11:50:32;;;;;;;0.10;0.10;;;21.20;48.40;;;;;;5030117;28;20648;-49
2023/10/05 11:53:10;;;;;;;0.10;0.10;;;21.20;48.40;;;;;;5029890;28;20569;-52
2023/10/05 11:55:41;;;;;;;0.08;0.08;;;21.20;48.40;;;;;;5030074;28;20683;-54
2023/10/05 11:58:13;;;;;;;0.03;0.03;;;21.20;48.40;;;;;;5032144;28;20255;-58
2023/10/05 12:00:44;;;;;;;0.10;0.10;;;21.10;48.40;;;;;;5032021;28;20192;-53
2023/10/05 12:03:16;;;;;;;0.05;0.05;;;21.10;48.40;;;;;;5030327;28;20248;-52
2023/10/05 12:05:47;;;;;;;0.10;0.10;;;21.10;48.50;;;;;;5032125;28;20192;-58
2023/10/05 12:08:18;;;;;;;0.10;0.10;;;21.10;48.50;;;;;;5030273;28;20204;-55
2023/10/05 12:10:49;;;;;;;0.10;0.10;;;21.10;48.40;;;;;;5032761;28;20521;-57
2023/10/05 12:13:22;;;;;;;0.10;0.10;;;21.10;48.50;;;;;;5032361;28;20208;-55
2023/10/05 12:15:53;;;;;;;0.10;0.10;;;21.00;48.40;;;;;;5032153;28;20196;-52
2023/10/05 12:18:24;;;;;;;0.00;0.00;;;21.00;48.40;;;;;;5031882;28;20755;-51
2023/10/05 12:20:55;;;;;;;0.10;0.10;;;21.00;48.40;;;;;;5029081;28;20552;-51
2023/10/05 12:23:26;;;;;;;0.10;0.10;;;21.00;48.40;;;;;;5031476;28;20242;-51
2023/10/05 12:25:57;;;;;;;0.10;0.10;;;21.00;48.40;;;;;;5028875;28;20188;-48
2023/10/05 12:28:30;;;;;;;0.10;0.10;;;21.00;48.40;;;;;;5031615;28;20593;-56
2023/10/05 12:31:01;;;;;;;0.10;0.10;;;20.90;48.30;;;;;;5029903;28;20188;-51
2023/10/05 12:33:32;;;;;;;0.10;0.10;;;20.90;48.40;;;;;;5031546;28;20287;-55
2023/10/05 12:36:02;;;;;;;0.10;0.10;;;20.90;48.30;;;;;;5031747;28;20668;-48
2023/10/05 12:38:33;;;;;;;0.10;0.10;;;20.80;48.30;;;;;;5030627;28;20219;-45
2023/10/05 12:41:12;;;;;;;0.10;0.10;;;20.90;48.40;;;;;;5031700;28;20196;-56
2023/10/05 12:43:46;;;;;;;0.10;0.10;;;20.80;48.40;;;;;;5030343;28;20687;-58
2023/10/05 12:46:18;;;;;;;0.10;0.10;;;20.80;48.40;;;;;;5029826;28;20609;-56
2023/10/05 12:48:49;;;;;;;0.00;0.00;;;20.80;48.50;;;;;;5031621;28;20695;-55
2023/10/05 12:51:22;;;;;;;0.10;0.10;;;20.70;48.40;;;;;;5031663;28;20192;-56
2023/10/05 12:53:53;;;;;;;0.00;0.00;;;20.70;48.40;;;;;;5031631;28;20712;-57
2023/10/05 12:56:23;;;;;;;0.00;0.00;;;20.70;48.40;;;;;;5031689;28;20189;-58
2023/10/05 12:58:57;;;;;;;0.00;0.00;;;20.70;48.40;;;;;;5028841;28;20311;-56
2023/10/05 13:01:28;;;;;;;0.00;0.00;;;20.70;48.50;;;;;;5031110;28;20207;-57
2023/10/05 13:03:58;;;;;;;0.00;0.00;;;20.70;48.50;;;;;;5028974;28;20212;-57
2023/10/05 13:06:29;;;;;;;0.10;0.10;;;20.70;48.50;;;;;;5031420;28;20200;-56
2023/10/05 13:09:02;;;;;;;0.00;0.00;;;20.60;48.40;;;;;;5031828;28;20599;-57
2023/10/05 13:11:34;;;;;;;0.00;0.00;;;20.60;48.40;;;;;;5031648;28;20191;-58
2023/10/05 13:14:08;;;;;;;0.00;0.00;;;20.60;48.40;;;;;;5030865;28;20258;-52
2023/10/05 13:16:39;;;;;;;0.00;0.00;;;20.60;48.40;;;;;;5028620;28;20660;-55
2023/10/05 13:19:12;;;;;;;0.10;0.10;;;20.50;48.40;;;;;;5029908;28;20319;-53
2023/10/05 13:21:44;;;;;;;0.10;0.10;;;20.50;48.50;;;;;;5030999;28;20196;-57
2023/10/05 13:24:15;;;;;;;0.10;0.10;;;20.50;48.40;;;;;;5028460;28;20212;-57
2023/10/05 13:26:46;;;;;;;0.00;0.00;;;20.50;48.50;;;;;;5029114;28;20219;-57
2023/10/05 13:29:25;;;;;;;0.03;0.03;;;20.50;48.50;;;;;;5030009;28;20623;-51
2023/10/05 13:31:55;;;;;;;0.10;0.10;;;20.40;48.50;;;;;;5028649;28;20196;-45
2023/10/05 13:34:28;;;;;;;0.08;0.08;;;20.40;48.50;;;;;;5031317;28;20247;-49
2023/10/05 13:36:59;;;;;;;0.10;0.10;;;20.40;48.50;;;;;;5031298;28;20200;-46
2023/10/05 13:39:32;;;;;;;0.10;0.10;;;20.40;48.50;;;;;;5030966;28;20198;-50
2023/10/05 13:42:09;;;;;;;0.03;0.03;;;20.40;48.50;;;;;;5031065;28;20286;-52
2023/10/05 13:44:42;;;;;;;0.00;0.00;;;20.40;48.60;;;;;;5031079;28;20282;-55